Flight Track Log - Related Links

Times and Time Zones

All times are in EDT time to prevent confusion due to time zone crossing. See the FLG3306 flight status page for this flight to view local times or setup timezone preferences in your user account.


Time Position Orientation Groundspeed Altitude Reporting Facility
EDT Latitude Longitude Course Direction KTS MPH feet Rate Location/Type
Sun 09:12:48 AM 32.8833 -97.0500 180° South 194 223 1,400  Level Dallas / Fort Worth TRACON
Sun 09:13:36 AM 32.8333 -97.0500 180° South 195 224 2,900 1,833 Climbing Dallas / Fort Worth TRACON
Sun 09:14:36 AM 32.7833 -97.0833 209° Southwest 245 282 4,700 2,222 Climbing Dallas / Fort Worth TRACON
Sun 09:15:24 AM 32.7667 -97.1500 253° West 273 314 6,900 2,480 Climbing Dallas / Fort Worth TRACON
Sun 09:17:06 AM 32.8269 -97.2700 301° West 312 359 10,900 1,852 Climbing Fort Worth Center
Sun 09:18:06 AM 32.9231 -97.2700 360° North 289 333 11,900 1,450 Climbing Fort Worth Center
Sun 09:19:06 AM 33.0211 -97.2647 North 314 361 13,800 2,000 Climbing Fort Worth Center
Sun 09:20:06 AM 33.1214 -97.2250 18° North 353 406 15,900 1,700 Climbing Fort Worth Center
Sun 09:21:06 AM 33.2256 -97.1900 16° North 374 430 17,200 1,400 Climbing Fort Worth Center
Sun 09:22:06 AM 33.3236 -97.1575 15° North 400 460 18,700 1,600 Climbing Fort Worth Center
Sun 09:23:06 AM 33.4447 -97.1122 17° North 405 466 20,400 1,450 Climbing Fort Worth Center
Sun 09:24:06 AM 33.5489 -97.0969 North 405 466 21,600 1,250 Climbing Fort Worth Center
Sun 09:25:06 AM 33.6783 -97.0814 North 410 472 22,900 1,300 Climbing Fort Worth Center
Sun 09:26:06 AM 33.8014 -97.0636 North 429 494 24,200 1,200 Climbing Fort Worth Center
Sun 09:27:06 AM 33.9203 -97.0506 North 429 494 25,300 1,000 Climbing Fort Worth Center
Sun 09:28:06 AM 34.0433 -97.0350 North 435 501 26,200 1,000 Climbing Fort Worth Center
Sun 09:29:06 AM 34.1497 -97.0244 North 435 501 27,300 1,100 Climbing Fort Worth Center
Sun 09:30:06 AM 34.2750 -97.0064 North 435 501 28,400 1,350 Climbing Fort Worth Center
Sun 09:31:06 AM 34.4083 -96.9706 13° North 445 512 30,000 1,350 Climbing Fort Worth Center
Sun 09:32:06 AM 34.5186 -96.9044 26° Northeast 440 506 31,100 1,150 Climbing Fort Worth Center
Sun 09:33:06 AM 34.6269 -96.8306 29° Northeast 440 506 32,300 1,150 Climbing Fort Worth Center
Sun 09:34:06 AM 34.7350 -96.7592 28° Northeast 435 501 33,400 950 Climbing Fort Worth Center
Sun 09:35:06 AM 34.8472 -96.6875 28° Northeast 440 506 34,200 800 Climbing Fort Worth Center
Sun 09:36:06 AM 34.9575 -96.6156 28° Northeast 440 506 35,000 400 Climbing Fort Worth Center
Sun 09:37:06 AM 35.0694 -96.5408 29° Northeast 445 512 35,000  Level Fort Worth Center
Sun 09:38:06 AM 35.1858 -96.4636 28° Northeast 457 526 35,000  Level Fort Worth Center
Sun 09:39:06 AM 35.3039 -96.3858 28° Northeast 473 544 35,000  Level Fort Worth Center
Sun 09:40:06 AM 35.4222 -96.3081 28° Northeast 473 544 35,000  Level Fort Worth Center
Sun 09:42:15 AM 35.6553 -96.1522 29° Northeast 478 550 35,000  Level Kansas City Center
Sun 09:43:16 AM 35.7844 -96.0656 29° Northeast 476 548 35,000  Level Kansas City Center
Sun 09:44:17 AM 35.9003 -95.9883 28° Northeast 473 544 35,000  Level Kansas City Center
Sun 09:45:19 AM 36.0144 -95.9119 28° Northeast 467 537 35,000  Level Kansas City Center
Sun 09:46:20 AM 36.1294 -95.8333 29° Northeast 469 540 35,000  Level Kansas City Center
Sun 09:47:22 AM 36.2486 -95.7708 23° Northeast 461 531 35,000  Level Kansas City Center
Sun 09:48:23 AM 36.3783 -95.7283 15° North 460 529 35,000  Level Kansas City Center
Sun 09:49:24 AM 36.5008 -95.6892 14° North 457 526 35,000  Level Kansas City Center
Sun 09:50:26 AM 36.6250 -95.6475 15° North 457 526 35,000  Level Kansas City Center
Sun 09:51:27 AM 36.7497 -95.6064 15° North 457 526 35,000  Level Kansas City Center
Sun 09:52:29 AM 36.8983 -95.5567 15° North 457 526 35,000  Level Kansas City Center
Sun 09:53:30 AM 37.0217 -95.5147 15° North 457 526 35,000  Level Kansas City Center
Sun 09:54:32 AM 37.1453 -95.4731 15° North 457 526 35,000  Level Kansas City Center
Sun 09:55:33 AM 37.2664 -95.4322 15° North 452 520 35,000  Level Kansas City Center
Sun 09:56:35 AM 37.3878 -95.3906 15° North 450 518 35,000  Level Kansas City Center
Sun 09:57:36 AM 37.5069 -95.3506 15° North 444 511 35,000  Level Kansas City Center
Sun 09:58:38 AM 37.6269 -95.3106 15° North 444 511 35,000  Level Kansas City Center
Sun 09:59:39 AM 37.7489 -95.2700 15° North 449 517 35,000  Level Kansas City Center
Sun 10:00:41 AM 37.8714 -95.2269 16° North 454 522 35,000  Level Kansas City Center
Sun 10:01:42 AM 38.0103 -95.1836 14° North 446 513 35,000  Level Kansas City Center
Sun 10:02:44 AM 38.1233 -95.1447 15° North 440 506 35,000 537 Level Kansas City Center
Sun 10:03:45 AM 38.2381 -95.1039 16° North 445 512 36,100 984 Climbing Kansas City Center
Sun 10:04:46 AM 38.3681 -95.0575 16° North 438 504 37,000 439 Climbing Kansas City Center
Sun 10:05:48 AM 38.4811 -95.0181 15° North 441 507 37,000  Level Kansas City Center
Sun 10:06:49 AM 38.6172 -94.9725 15° North 453 521 37,000  Level Kansas City Center
Sun 10:07:51 AM 38.7342 -94.9308 16° North 458 527 37,000  Level Kansas City Center
Sun 10:08:52 AM 38.8694 -94.8828 15° North 454 522 37,000  Level Kansas City Center
Sun 10:09:54 AM 38.9847 -94.8425 15° North 451 519 37,000  Level Kansas City Center
Sun 10:10:55 AM 39.0989 -94.8017 16° North 449 517 37,000  Level Kansas City Center
Sun 10:11:56 AM 39.2328 -94.7533 16° North 449 517 37,000  Level Kansas City Center
Sun 10:12:58 AM 39.3456 -94.7069 18° North 449 517 37,000  Level Kansas City Center
Sun 10:13:59 AM 39.4769 -94.6433 20° North 454 522 37,000  Level Kansas City Center
Sun 10:15:01 AM 39.5858 -94.5897 21° North 441 507 37,000  Level Kansas City Center
Sun 10:16:02 AM 39.7139 -94.5264 21° North 441 507 37,000  Level Kansas City Center
Sun 10:17:04 AM 39.8242 -94.4717 21° North 442 509 37,000  Level Kansas City Center
Sun 10:18:05 AM 39.9347 -94.4169 21° North 444 511 37,000  Level Kansas City Center
Sun 10:19:07 AM 40.0628 -94.3519 21° North 443 510 37,000  Level Kansas City Center
Sun 10:20:08 AM 40.1736 -94.2992 20° North 444 511 37,000  Level Kansas City Center
Sun 10:21:10 AM 40.3011 -94.2322 22° Northeast 441 507 37,000  Level Kansas City Center
Sun 10:22:11 AM 40.3997 -94.1806 22° Northeast 440 506 37,000  Level Kansas City Center
Sun 10:23:01 AM 40.5139 -94.1231 21° North 442 509 37,000  Level Minneapolis Center
Sun 10:24:03 AM 40.6283 -94.0650 21° North 442 509 37,000  Level Minneapolis Center
Sun 10:25:04 AM 40.7444 -94.0064 21° North 444 511 37,000  Level Minneapolis Center
Sun 10:26:06 AM 40.8644 -93.9886 North 439 505 37,000  Level Minneapolis Center
Sun 10:27:07 AM 40.9833 -93.9878 360° North 432 497 37,000  Level Minneapolis Center
Sun 10:28:08 AM 41.1031 -93.9867 360° North 431 496 37,000  Level Minneapolis Center
Sun 10:29:10 AM 41.2192 -93.9853 North 425 489 37,000  Level Minneapolis Center
Sun 10:30:11 AM 41.3325 -93.9856 360° North 416 479 37,000  Level Minneapolis Center
Sun 10:31:13 AM 41.4681 -93.9878 359° North 411 473 37,000  Level Minneapolis Center
Sun 10:32:14 AM 41.5819 -93.9875 360° North 410 472 37,000  Level Minneapolis Center
Sun 10:33:16 AM 41.6947 -93.9861 North 409 471 37,000  Level Minneapolis Center
Sun 10:34:17 AM 41.7858 -93.9853 360° North 410 472 37,000  Level Minneapolis Center
Sun 10:35:19 AM 41.9222 -93.9664 North 417 480 37,000 -242 Level Minneapolis Center
Sun 10:36:21 AM 42.0367 -93.9319 13° North 421 484 36,500 -829 Descending Minneapolis Center
Sun 10:37:22 AM 42.1750 -93.8900 13° North 424 488 35,300 -1,073 Descending Minneapolis Center
Sun 10:38:24 AM 42.2883 -93.8561 12° North 431 496 34,300 -968 Descending Minneapolis Center
Sun 10:39:26 AM 42.4072 -93.8211 12° North 437 503 33,300 -634 Descending Minneapolis Center
Sun 10:40:27 AM 42.5278 -93.7850 12° North 442 509 33,000 -146 Descending Minneapolis Center
Sun 10:41:29 AM 42.6481 -93.7486 13° North 444 511 33,000  Level Minneapolis Center
Sun 10:42:31 AM 42.7669 -93.7106 13° North 443 510 33,000  Level Minneapolis Center
Sun 10:43:32 AM 42.9128 -93.6672 12° North 449 517 33,000 -146 Level Minneapolis Center
Sun 10:44:34 AM 43.0344 -93.6292 13° North 450 518 32,700 -677 Descending Minneapolis Center
Sun 10:45:36 AM 43.1539 -93.5925 13° North 446 513 31,600 -1,073 Descending Minneapolis Center
Sun 10:46:37 AM 43.2706 -93.5572 12° North 436 502 30,500 -1,561 Descending Minneapolis Center
Sun 10:47:39 AM 43.3889 -93.5433 North 431 496 28,400 -2,226 Descending Minneapolis Center
Sun 10:48:41 AM 43.5014 -93.5336 North 416 479 25,900 -2,488 Descending Minneapolis Center
Sun 10:49:42 AM 43.6206 -93.5192 North 400 460 23,300 -2,488 Descending Minneapolis Center
Sun 10:50:44 AM 43.7286 -93.5092 North 393 452 20,800 -2,293 Descending Minneapolis Center
Sun 10:51:45 AM 43.8361 -93.5003 North 390 449 18,600 -2,341 Descending Minneapolis Center
Sun 10:52:47 AM 43.9578 -93.4892 North 362 417 16,000 -2,323 Descending Minneapolis Center
Sun 10:53:49 AM 44.0533 -93.4789 North 345 397 13,800 -2,089 Descending Minneapolis Center
Sun 10:55:02 AM 44.1636 -93.4686 North 332 382 11,300 -1,244 Descending Minneapolis Center
Sun 10:56:04 AM 44.2553 -93.4467 10° North 336 387 11,000 -145 Descending Minneapolis Center
Sun 10:57:06 AM 44.3392 -93.3869 27° Northeast 340 391 11,000  Level Minneapolis Center
Sun 10:58:07 AM 44.4239 -93.3275 27° Northeast 343 395 11,000  Level Minneapolis Center
Sun 10:59:09 AM 44.5083 -93.2683 27° Northeast 343 395 11,000 -195 Level Minneapolis Center
Sun 11:00:10 AM 44.6089 -93.1983 26° Northeast 340 391 10,600 -976 Descending Minneapolis Center
Sun 11:01:12 AM 44.6867 -93.2169 350° North 288 331 9,000 -1,268 Descending Minneapolis Center
Sun 11:02:13 AM 44.7633 -93.2656 336° Northwest 285 328 8,000 -732 Descending Minneapolis Center
Sun 11:03:15 AM 44.8308 -93.3231 329° Northwest 285 328 7,500 -1,024 Descending Minneapolis Center
Sun 11:04:16 AM 44.8736 -93.4122 304° West 277 319 5,900 -1,220 Descending Minneapolis Center
Sun 11:05:18 AM 44.9233 -93.4731 319° Northwest 272 313 5,000 -1,016 Descending Minneapolis Center
Sun 11:06:20 AM 44.9475 -93.3972 66° East 228 262 3,800 -1,161 Descending Minneapolis Center

Login

Don't have an account? Register now (free) for customized features, flight alerts, and more!